Huvudsida
METAR-TAF:

METAR-TAF

Flygplatser :

Katima Mulilo, Namibia

latitud: 17-38-04S, longitud: 024-10-36E, höjd: 985 m

Aktuellt väderrapport

Denna rapport gjordes för 35 minuter sedan, klockan 08:00 UTC
Vind 5 kt från ost/nordost
Temperatur 19°C
Fuktighet 52%
Tryck 1026 hPa
Sikt 10 km eller mer
Inga moln under 1 500 m eller inga cumulonimbus

METAR: FYKM 250800Z 06005KT CAVOK 19/09 Q1026

Tid: 10:35 (08:35 UTC)

Väderprognos

Denna rapport gjordes för 15 timmar och 35 minuter sedan, klockan 17:00 UTC
Prognos gäller från 24 kl. 18 UTC till 25 kl. 03 UTC
Vind 4 kt från ost/sydost
Sikt 10 km eller mer
Inga moln under 1 500 m eller inga cumulonimbus

TAF: FYKM 241700Z 2418/2503 12004KT CAVOK

Aktuella väderrapporter och prognoser från 4000 flygplatser (METAR- och TAF-rapporter).

De tillgängliga stationerna syns som gula och röda prickar på kartan.

För musen över prickarna för att se namnen på stationerna.

Klicka sedan för att få väderrapporter och prognoser.

För att ändra kartan: Klicka på de gröna knapparna med ett svart kors på för att zooma in; den gröna knappen med ett streck på för att zooma ut; eller på de gröna pilarna för angränsande kartor.


METAR-TAF: